sensor_id;sensor_type;location;lat;lon;timestamp;pressure;altitude;pressure_sealevel;temperature;humidity
41886;BME280;27567;43.084;25.616;2023-09-19T00:02:00;98569.88;;;14.45;100.00
41886;BME280;27567;43.084;25.616;2023-09-19T00:04:44;98557.94;;;14.34;100.00
41886;BME280;27567;43.084;25.616;2023-09-19T00:07:28;98566.59;;;14.42;100.00
41886;BME280;27567;43.084;25.616;2023-09-19T00:10:12;98548.91;;;14.47;100.00
41886;BME280;27567;43.084;25.616;2023-09-19T00:12:59;98549.41;;;14.37;100.00
41886;BME280;27567;43.084;25.616;2023-09-19T00:15:45;98548.63;;;14.30;100.00
41886;BME280;27567;43.084;25.616;2023-09-19T00:18:33;98550.28;;;14.31;100.00
41886;BME280;27567;43.084;25.616;2023-09-19T00:21:18;98544.56;;;14.46;100.00
41886;BME280;27567;43.084;25.616;2023-09-19T00:24:04;98547.03;;;14.47;100.00
41886;BME280;27567;43.084;25.616;2023-09-19T00:26:50;98553.47;;;14.46;100.00
41886;BME280;27567;43.084;25.616;2023-09-19T00:29:34;98546.28;;;14.40;100.00
41886;BME280;27567;43.084;25.616;2023-09-19T00:32:18;98549.13;;;14.45;100.00
41886;BME280;27567;43.084;25.616;2023-09-19T00:35:02;98553.59;;;14.33;100.00
41886;BME280;27567;43.084;25.616;2023-09-19T00:37:47;98551.34;;;14.30;100.00
41886;BME280;27567;43.084;25.616;2023-09-19T00:40:31;98548.25;;;14.26;100.00
41886;BME280;27567;43.084;25.616;2023-09-19T00:43:16;98538.84;;;14.10;100.00
41886;BME280;27567;43.084;25.616;2023-09-19T00:46:00;98550.50;;;14.04;100.00
41886;BME280;27567;43.084;25.616;2023-09-19T00:48:47;98553.69;;;13.94;100.00
41886;BME280;27567;43.084;25.616;2023-09-19T00:51:31;98550.19;;;13.93;100.00
41886;BME280;27567;43.084;25.616;2023-09-19T00:54:16;98555.03;;;13.78;100.00
41886;BME280;27567;43.084;25.616;2023-09-19T00:57:02;98546.00;;;13.65;100.00
41886;BME280;27567;43.084;25.616;2023-09-19T00:59:49;98542.66;;;13.70;100.00
41886;BME280;27567;43.084;25.616;2023-09-19T01:02:34;98538.56;;;13.61;100.00
41886;BME280;27567;43.084;25.616;2023-09-19T01:05:18;98534.06;;;13.55;100.00
41886;BME280;27567;43.084;25.616;2023-09-19T01:08:03;98535.91;;;13.54;100.00
41886;BME280;27567;43.084;25.616;2023-09-19T01:11:03;98541.47;;;13.59;100.00
41886;BME280;27567;43.084;25.616;2023-09-19T01:28:34;98537.50;;;13.23;100.00
41886;BME280;27567;43.084;25.616;2023-09-19T01:31:24;98536.91;;;13.07;100.00
41886;BME280;27567;43.084;25.616;2023-09-19T01:34:09;98532.59;;;13.00;100.00
41886;BME280;27567;43.084;25.616;2023-09-19T01:36:53;98540.91;;;12.98;100.00
41886;BME280;27567;43.084;25.616;2023-09-19T01:39:38;98534.47;;;12.92;100.00
41886;BME280;27567;43.084;25.616;2023-09-19T01:42:37;98527.84;;;13.02;100.00
41886;BME280;27567;43.084;25.616;2023-09-19T01:45:42;98525.34;;;13.07;100.00
41886;BME280;27567;43.084;25.616;2023-09-19T01:48:50;98525.53;;;13.05;100.00
41886;BME280;27567;43.084;25.616;2023-09-19T01:54:46;98517.28;;;13.07;100.00
41886;BME280;27567;43.084;25.616;2023-09-19T01:57:41;98520.59;;;12.96;100.00
41886;BME280;27567;43.084;25.616;2023-09-19T02:00:27;98514.44;;;12.82;100.00
41886;BME280;27567;43.084;25.616;2023-09-19T02:03:13;98518.41;;;12.79;100.00
41886;BME280;27567;43.084;25.616;2023-09-19T02:05:58;98520.03;;;12.80;100.00
41886;BME280;27567;43.084;25.616;2023-09-19T02:08:43;98513.22;;;12.71;100.00
41886;BME280;27567;43.084;25.616;2023-09-19T02:11:26;98500.25;;;12.54;100.00
41886;BME280;27567;43.084;25.616;2023-09-19T02:14:10;98510.38;;;12.59;100.00
41886;BME280;27567;43.084;25.616;2023-09-19T02:16:55;98497.78;;;12.46;100.00
41886;BME280;27567;43.084;25.616;2023-09-19T02:19:40;98512.47;;;12.43;100.00
41886;BME280;27567;43.084;25.616;2023-09-19T02:22:24;98505.44;;;12.42;100.00
41886;BME280;27567;43.084;25.616;2023-09-19T02:25:08;98493.06;;;12.35;100.00
41886;BME280;27567;43.084;25.616;2023-09-19T02:27:52;98505.84;;;12.39;100.00
41886;BME280;27567;43.084;25.616;2023-09-19T02:30:37;98505.88;;;12.32;100.00
41886;BME280;27567;43.084;25.616;2023-09-19T02:33:22;98501.75;;;12.37;100.00
41886;BME280;27567;43.084;25.616;2023-09-19T02:36:06;98487.25;;;12.31;100.00
41886;BME280;27567;43.084;25.616;2023-09-19T02:38:51;98493.84;;;12.48;100.00
41886;BME280;27567;43.084;25.616;2023-09-19T02:41:35;98490.31;;;12.48;100.00
41886;BME280;27567;43.084;25.616;2023-09-19T02:44:19;98494.25;;;12.52;100.00
41886;BME280;27567;43.084;25.616;2023-09-19T02:47:04;98491.16;;;12.48;100.00
41886;BME280;27567;43.084;25.616;2023-09-19T02:49:48;98491.59;;;12.45;100.00
41886;BME280;27567;43.084;25.616;2023-09-19T02:52:32;98490.56;;;12.40;100.00
41886;BME280;27567;43.084;25.616;2023-09-19T02:55:17;98492.84;;;12.36;100.00
41886;BME280;27567;43.084;25.616;2023-09-19T02:58:03;98491.16;;;12.42;100.00
41886;BME280;27567;43.084;25.616;2023-09-19T03:00:49;98486.41;;;12.37;100.00
41886;BME280;27567;43.084;25.616;2023-09-19T03:03:33;98485.78;;;12.55;100.00
41886;BME280;27567;43.084;25.616;2023-09-19T03:06:17;98492.78;;;12.63;100.00
41886;BME280;27567;43.084;25.616;2023-09-19T03:09:04;98483.22;;;12.74;100.00
41886;BME280;27567;43.084;25.616;2023-09-19T03:11:49;98484.66;;;12.76;100.00
41886;BME280;27567;43.084;25.616;2023-09-19T03:14:33;98486.53;;;12.76;100.00
41886;BME280;27567;43.084;25.616;2023-09-19T03:17:19;98479.09;;;12.71;100.00
41886;BME280;27567;43.084;25.616;2023-09-19T03:20:04;98479.38;;;12.50;100.00
41886;BME280;27567;43.084;25.616;2023-09-19T03:22:52;98480.41;;;12.48;100.00
41886;BME280;27567;43.084;25.616;2023-09-19T03:25:36;98477.47;;;12.57;100.00
41886;BME280;27567;43.084;25.616;2023-09-19T03:28:20;98486.59;;;12.56;100.00
41886;BME280;27567;43.084;25.616;2023-09-19T03:31:06;98493.03;;;12.41;100.00
41886;BME280;27567;43.084;25.616;2023-09-19T03:33:50;98498.63;;;12.40;100.00
41886;BME280;27567;43.084;25.616;2023-09-19T03:36:33;98493.88;;;12.28;100.00
41886;BME280;27567;43.084;25.616;2023-09-19T03:39:18;98509.19;;;12.21;100.00
41886;BME280;27567;43.084;25.616;2023-09-19T03:42:02;98510.44;;;12.18;100.00
41886;BME280;27567;43.084;25.616;2023-09-19T03:44:48;98502.38;;;12.12;100.00
41886;BME280;27567;43.084;25.616;2023-09-19T03:47:31;98509.38;;;12.26;100.00
41886;BME280;27567;43.084;25.616;2023-09-19T03:50:16;98516.00;;;12.17;100.00
41886;BME280;27567;43.084;25.616;2023-09-19T03:53:01;98519.13;;;12.14;100.00
41886;BME280;27567;43.084;25.616;2023-09-19T03:55:46;98509.00;;;12.02;100.00
41886;BME280;27567;43.084;25.616;2023-09-19T03:58:30;98518.91;;;12.09;100.00
41886;BME280;27567;43.084;25.616;2023-09-19T04:01:14;98514.56;;;12.21;100.00
41886;BME280;27567;43.084;25.616;2023-09-19T04:04:00;98511.47;;;12.17;100.00
41886;BME280;27567;43.084;25.616;2023-09-19T04:06:52;98507.94;;;12.17;100.00
41886;BME280;27567;43.084;25.616;2023-09-19T04:09:36;98515.19;;;12.10;100.00
41886;BME280;27567;43.084;25.616;2023-09-19T04:12:20;98512.50;;;12.10;100.00
41886;BME280;27567;43.084;25.616;2023-09-19T04:15:07;98522.00;;;12.19;100.00
41886;BME280;27567;43.084;25.616;2023-09-19T04:17:52;98514.56;;;12.21;100.00
41886;BME280;27567;43.084;25.616;2023-09-19T04:20:37;98514.34;;;12.29;100.00
41886;BME280;27567;43.084;25.616;2023-09-19T04:23:21;98507.72;;;12.39;100.00
41886;BME280;27567;43.084;25.616;2023-09-19T04:26:05;98509.38;;;12.46;100.00
41886;BME280;27567;43.084;25.616;2023-09-19T04:28:50;98512.28;;;12.31;100.00
41886;BME280;27567;43.084;25.616;2023-09-19T04:31:35;98513.94;;;12.32;100.00
41886;BME280;27567;43.084;25.616;2023-09-19T04:34:24;98511.84;;;12.48;100.00
41886;BME280;27567;43.084;25.616;2023-09-19T04:37:09;98501.91;;;12.55;100.00
41886;BME280;27567;43.084;25.616;2023-09-19T04:39:54;98508.09;;;12.62;100.00
41886;BME280;27567;43.084;25.616;2023-09-19T04:42:39;98485.31;;;12.65;100.00
41886;BME280;27567;43.084;25.616;2023-09-19T04:45:25;98492.72;;;12.76;100.00
41886;BME280;27567;43.084;25.616;2023-09-19T04:48:10;98502.66;;;12.83;100.00
41886;BME280;27567;43.084;25.616;2023-09-19T04:50:54;98492.47;;;12.91;100.00
41886;BME280;27567;43.084;25.616;2023-09-19T04:53:38;98489.31;;;13.01;100.00
41886;BME280;27567;43.084;25.616;2023-09-19T04:56:22;98491.59;;;13.11;100.00
41886;BME280;27567;43.084;25.616;2023-09-19T04:59:07;98502.28;;;13.25;100.00
41886;BME280;27567;43.084;25.616;2023-09-19T05:01:51;98498.06;;;13.35;100.00
41886;BME280;27567;43.084;25.616;2023-09-19T05:04:35;98497.63;;;13.45;100.00
41886;BME280;27567;43.084;25.616;2023-09-19T05:07:21;98500.88;;;13.54;100.00
41886;BME280;27567;43.084;25.616;2023-09-19T05:10:10;98494.22;;;13.63;100.00
41886;BME280;27567;43.084;25.616;2023-09-19T05:12:55;98493.06;;;13.78;100.00
41886;BME280;27567;43.084;25.616;2023-09-19T05:15:39;98497.97;;;13.88;100.00
41886;BME280;27567;43.084;25.616;2023-09-19T05:18:23;98495.34;;;14.06;100.00
41886;BME280;27567;43.084;25.616;2023-09-19T05:21:07;98496.00;;;14.27;100.00
41886;BME280;27567;43.084;25.616;2023-09-19T05:23:52;98486.78;;;14.35;100.00
41886;BME280;27567;43.084;25.616;2023-09-19T05:26:36;98490.38;;;14.47;100.00
41886;BME280;27567;43.084;25.616;2023-09-19T05:29:20;98495.84;;;14.59;100.00
41886;BME280;27567;43.084;25.616;2023-09-19T05:32:04;98497.25;;;14.68;100.00
41886;BME280;27567;43.084;25.616;2023-09-19T05:34:49;98505.28;;;14.75;100.00
41886;BME280;27567;43.084;25.616;2023-09-19T05:37:36;98495.66;;;14.98;100.00
41886;BME280;27567;43.084;25.616;2023-09-19T05:40:21;98501.47;;;15.32;100.00
41886;BME280;27567;43.084;25.616;2023-09-19T05:43:06;98489.28;;;15.41;100.00
41886;BME280;27567;43.084;25.616;2023-09-19T05:45:50;98487.69;;;15.52;100.00
41886;BME280;27567;43.084;25.616;2023-09-19T05:48:35;98497.34;;;15.60;100.00
41886;BME280;27567;43.084;25.616;2023-09-19T05:51:19;98488.56;;;15.76;100.00
41886;BME280;27567;43.084;25.616;2023-09-19T05:54:06;98493.06;;;15.83;100.00
41886;BME280;27567;43.084;25.616;2023-09-19T05:56:50;98489.59;;;16.06;100.00
41886;BME280;27567;43.084;25.616;2023-09-19T05:59:36;98481.59;;;16.35;100.00
41886;BME280;27567;43.084;25.616;2023-09-19T06:02:20;98481.56;;;16.59;100.00
41886;BME280;27567;43.084;25.616;2023-09-19T06:05:05;98480.38;;;16.66;100.00
41886;BME280;27567;43.084;25.616;2023-09-19T06:07:55;98478.84;;;16.82;100.00
41886;BME280;27567;43.084;25.616;2023-09-19T06:10:43;98485.00;;;17.19;100.00
41886;BME280;27567;43.084;25.616;2023-09-19T06:13:30;98477.31;;;17.27;100.00
41886;BME280;27567;43.084;25.616;2023-09-19T06:16:17;98484.13;;;17.30;100.00
41886;BME280;27567;43.084;25.616;2023-09-19T06:19:03;98485.22;;;17.17;100.00
41886;BME280;27567;43.084;25.616;2023-09-19T06:21:50;98496.28;;;17.27;100.00
41886;BME280;27567;43.084;25.616;2023-09-19T06:24:34;98488.53;;;17.48;100.00
41886;BME280;27567;43.084;25.616;2023-09-19T06:27:18;98486.41;;;17.50;100.00
41886;BME280;27567;43.084;25.616;2023-09-19T06:30:02;98484.22;;;17.64;100.00
41886;BME280;27567;43.084;25.616;2023-09-19T06:32:47;98485.78;;;17.77;100.00
41886;BME280;27567;43.084;25.616;2023-09-19T06:35:35;98488.56;;;17.82;100.00
41886;BME280;27567;43.084;25.616;2023-09-19T06:38:19;98485.53;;;17.96;100.00
41886;BME280;27567;43.084;25.616;2023-09-19T06:41:05;98488.03;;;18.14;100.00
41886;BME280;27567;43.084;25.616;2023-09-19T06:43:52;98487.75;;;18.33;100.00
41886;BME280;27567;43.084;25.616;2023-09-19T06:46:39;98486.25;;;18.59;100.00
41886;BME280;27567;43.084;25.616;2023-09-19T06:49:24;98484.72;;;18.69;100.00
41886;BME280;27567;43.084;25.616;2023-09-19T06:52:08;98483.16;;;18.73;100.00
41886;BME280;27567;43.084;25.616;2023-09-19T06:54:53;98477.03;;;18.83;100.00
41886;BME280;27567;43.084;25.616;2023-09-19T06:57:36;98477.78;;;18.95;100.00
41886;BME280;27567;43.084;25.616;2023-09-19T07:00:20;98496.81;;;19.45;100.00
41886;BME280;27567;43.084;25.616;2023-09-19T07:03:08;98483.72;;;19.42;100.00
41886;BME280;27567;43.084;25.616;2023-09-19T07:05:55;98490.47;;;19.39;100.00
41886;BME280;27567;43.084;25.616;2023-09-19T07:08:39;98493.88;;;19.51;100.00
41886;BME280;27567;43.084;25.616;2023-09-19T07:11:23;98494.91;;;19.73;100.00
41886;BME280;27567;43.084;25.616;2023-09-19T07:14:08;98490.19;;;19.90;100.00
41886;BME280;27567;43.084;25.616;2023-09-19T07:16:55;98484.25;;;19.98;100.00
41886;BME280;27567;43.084;25.616;2023-09-19T07:19:39;98487.19;;;19.92;100.00
41886;BME280;27567;43.084;25.616;2023-09-19T07:22:26;98484.41;;;19.87;100.00
41886;BME280;27567;43.084;25.616;2023-09-19T07:25:11;98478.25;;;20.29;100.00
41886;BME280;27567;43.084;25.616;2023-09-19T07:27:55;98477.16;;;20.35;100.00
41886;BME280;27567;43.084;25.616;2023-09-19T07:30:40;98472.50;;;20.73;100.00
41886;BME280;27567;43.084;25.616;2023-09-19T07:33:25;98468.75;;;20.80;100.00
41886;BME280;27567;43.084;25.616;2023-09-19T07:36:11;98467.97;;;20.90;100.00
41886;BME280;27567;43.084;25.616;2023-09-19T07:38:57;98471.63;;;21.21;100.00
41886;BME280;27567;43.084;25.616;2023-09-19T07:41:41;98473.56;;;21.31;100.00
41886;BME280;27567;43.084;25.616;2023-09-19T07:44:25;98462.94;;;21.45;100.00
41886;BME280;27567;43.084;25.616;2023-09-19T07:47:10;98464.66;;;21.92;100.00
41886;BME280;27567;43.084;25.616;2023-09-19T07:49:53;98467.63;;;21.96;100.00
41886;BME280;27567;43.084;25.616;2023-09-19T07:52:39;98461.06;;;22.44;100.00
41886;BME280;27567;43.084;25.616;2023-09-19T07:55:23;98444.81;;;22.78;100.00
41886;BME280;27567;43.084;25.616;2023-09-19T07:58:09;98450.38;;;22.58;100.00
41886;BME280;27567;43.084;25.616;2023-09-19T08:00:52;98442.94;;;22.69;100.00
41886;BME280;27567;43.084;25.616;2023-09-19T08:03:37;98448.44;;;22.63;100.00
41886;BME280;27567;43.084;25.616;2023-09-19T08:06:25;98438.91;;;22.56;100.00
41886;BME280;27567;43.084;25.616;2023-09-19T08:09:13;98444.03;;;22.78;100.00
41886;BME280;27567;43.084;25.616;2023-09-19T08:12:03;98434.88;;;23.03;100.00
41886;BME280;27567;43.084;25.616;2023-09-19T08:14:48;98436.66;;;22.73;100.00
41886;BME280;27567;43.084;25.616;2023-09-19T08:17:34;98428.97;;;22.80;100.00
41886;BME280;27567;43.084;25.616;2023-09-19T08:20:18;98425.56;;;23.04;100.00
41886;BME280;27567;43.084;25.616;2023-09-19T08:23:03;98418.44;;;23.08;100.00
41886;BME280;27567;43.084;25.616;2023-09-19T08:25:47;98423.69;;;23.00;100.00
41886;BME280;27567;43.084;25.616;2023-09-19T08:28:32;98417.28;;;23.25;100.00
41886;BME280;27567;43.084;25.616;2023-09-19T08:31:17;98415.44;;;23.55;100.00
41886;BME280;27567;43.084;25.616;2023-09-19T08:34:01;98412.41;;;23.22;100.00
41886;BME280;27567;43.084;25.616;2023-09-19T08:36:45;98405.22;;;23.31;98.33
41886;BME280;27567;43.084;25.616;2023-09-19T08:39:30;98408.53;;;23.63;96.02
41886;BME280;27567;43.084;25.616;2023-09-19T08:42:17;98405.69;;;23.78;92.15
41886;BME280;27567;43.084;25.616;2023-09-19T08:45:04;98405.31;;;23.90;78.83
41886;BME280;27567;43.084;25.616;2023-09-19T08:48:16;98404.47;;;23.90;83.73
41886;BME280;27567;43.084;25.616;2023-09-19T08:51:12;98403.47;;;23.80;87.59
41886;BME280;27567;43.084;25.616;2023-09-19T08:54:07;98401.34;;;23.72;97.13
41886;BME280;27567;43.084;25.616;2023-09-19T08:56:54;98394.59;;;23.94;99.31
41886;BME280;27567;43.084;25.616;2023-09-19T08:59:38;98393.03;;;24.17;100.00
41886;BME280;27567;43.084;25.616;2023-09-19T09:02:27;98390.81;;;24.43;94.27
41886;BME280;27567;43.084;25.616;2023-09-19T09:05:12;98388.06;;;24.43;87.74
41886;BME280;27567;43.084;25.616;2023-09-19T09:07:57;98378.03;;;24.58;84.27
41886;BME280;27567;43.084;25.616;2023-09-19T09:10:44;98372.22;;;24.40;78.83
41886;BME280;27567;43.084;25.616;2023-09-19T09:13:28;98377.16;;;24.63;71.64
41886;BME280;27567;43.084;25.616;2023-09-19T09:16:14;98373.81;;;25.09;73.90
41886;BME280;27567;43.084;25.616;2023-09-19T09:19:01;98373.56;;;25.25;65.64
41886;BME280;27567;43.084;25.616;2023-09-19T09:21:45;98360.50;;;25.35;63.82
41886;BME280;27567;43.084;25.616;2023-09-19T09:24:29;98367.16;;;25.15;61.88
41886;BME280;27567;43.084;25.616;2023-09-19T09:27:14;98363.84;;;25.32;64.89
41886;BME280;27567;43.084;25.616;2023-09-19T09:29:59;98358.84;;;25.73;67.19
41886;BME280;27567;43.084;25.616;2023-09-19T09:32:43;98366.28;;;26.33;63.13
41886;BME280;27567;43.084;25.616;2023-09-19T09:35:27;98358.03;;;26.47;63.29
41886;BME280;27567;43.084;25.616;2023-09-19T09:38:11;98358.16;;;25.95;60.01
41886;BME280;27567;43.084;25.616;2023-09-19T09:40:56;98354.19;;;25.87;68.25
41886;BME280;27567;43.084;25.616;2023-09-19T09:43:43;98348.44;;;26.45;66.93
41886;BME280;27567;43.084;25.616;2023-09-19T09:46:29;98341.34;;;26.94;65.70
41886;BME280;27567;43.084;25.616;2023-09-19T09:49:34;98353.28;;;26.76;61.85
41886;BME280;27567;43.084;25.616;2023-09-19T09:52:18;98352.47;;;26.75;60.86
41886;BME280;27567;43.084;25.616;2023-09-19T09:55:03;98358.81;;;26.48;62.32
41886;BME280;27567;43.084;25.616;2023-09-19T09:58:15;98365.25;;;26.29;63.09
41886;BME280;27567;43.084;25.616;2023-09-19T10:01:04;98356.25;;;26.09;64.99
41886;BME280;27567;43.084;25.616;2023-09-19T10:04:10;98347.22;;;26.37;66.37
41886;BME280;27567;43.084;25.616;2023-09-19T10:06:56;98341.78;;;27.24;64.98
41886;BME280;27567;43.084;25.616;2023-09-19T10:09:47;98342.38;;;29.14;54.12
41886;BME280;27567;43.084;25.616;2023-09-19T10:12:32;98329.78;;;32.70;44.32
41886;BME280;27567;43.084;25.616;2023-09-19T10:15:22;98331.03;;;35.02;38.09
41886;BME280;27567;43.084;25.616;2023-09-19T10:18:11;98323.13;;;35.67;36.14
41886;BME280;27567;43.084;25.616;2023-09-19T10:21:02;98341.69;;;33.52;38.76
41886;BME280;27567;43.084;25.616;2023-09-19T10:23:49;98339.22;;;32.81;41.26
41886;BME280;27567;43.084;25.616;2023-09-19T10:26:36;98324.63;;;33.38;39.46
41886;BME280;27567;43.084;25.616;2023-09-19T10:29:21;98330.41;;;31.34;41.53
41886;BME280;27567;43.084;25.616;2023-09-19T10:32:08;98330.38;;;30.40;43.67
41886;BME280;27567;43.084;25.616;2023-09-19T10:34:53;98329.06;;;28.99;48.14
41886;BME280;27567;43.084;25.616;2023-09-19T10:37:40;98326.56;;;28.53;55.02
41886;BME280;27567;43.084;25.616;2023-09-19T10:40:27;98320.31;;;27.89;62.73
41886;BME280;27567;43.084;25.616;2023-09-19T10:43:19;98314.84;;;29.79;58.04
41886;BME280;27567;43.084;25.616;2023-09-19T10:46:07;98312.47;;;33.30;43.30
41886;BME280;27567;43.084;25.616;2023-09-19T10:48:51;98313.19;;;37.27;36.55
41886;BME280;27567;43.084;25.616;2023-09-19T10:51:41;98307.97;;;39.38;33.53
41886;BME280;27567;43.084;25.616;2023-09-19T10:54:32;98322.72;;;41.09;30.62
41886;BME280;27567;43.084;25.616;2023-09-19T10:57:21;98317.22;;;39.68;31.02
41886;BME280;27567;43.084;25.616;2023-09-19T11:00:11;98305.50;;;38.45;32.04
41886;BME280;27567;43.084;25.616;2023-09-19T11:06:08;98300.06;;;38.77;31.87
41886;BME280;27567;43.084;25.616;2023-09-19T11:09:02;98301.34;;;35.73;35.09
41886;BME280;27567;43.084;25.616;2023-09-19T11:11:50;98298.78;;;35.64;35.33
41886;BME280;27567;43.084;25.616;2023-09-19T11:14:40;98288.63;;;35.32;36.48
41886;BME280;27567;43.084;25.616;2023-09-19T11:17:32;98290.53;;;34.69;36.72
41886;BME280;27567;43.084;25.616;2023-09-19T11:20:19;98286.19;;;36.74;34.30
41886;BME280;27567;43.084;25.616;2023-09-19T11:25:55;98295.56;;;35.19;35.24
41886;BME280;27567;43.084;25.616;2023-09-19T11:28:39;98304.84;;;32.98;38.11
41886;BME280;27567;43.084;25.616;2023-09-19T11:31:42;98299.72;;;31.85;40.96
41886;BME280;27567;43.084;25.616;2023-09-19T11:34:45;98287.66;;;31.69;42.15
41886;BME280;27567;43.084;25.616;2023-09-19T11:40:16;98289.28;;;31.70;43.35
41886;BME280;27567;43.084;25.616;2023-09-19T11:43:29;98280.78;;;31.75;43.51
41886;BME280;27567;43.084;25.616;2023-09-19T11:46:16;98281.63;;;32.37;42.05
41886;BME280;27567;43.084;25.616;2023-09-19T11:49:08;98276.75;;;32.47;40.89
41886;BME280;27567;43.084;25.616;2023-09-19T11:52:01;98271.66;;;35.84;35.67
41886;BME280;27567;43.084;25.616;2023-09-19T11:54:55;98256.66;;;35.69;35.28
41886;BME280;27567;43.084;25.616;2023-09-19T11:57:41;98265.84;;;36.74;32.93
41886;BME280;27567;43.084;25.616;2023-09-19T12:00:26;98253.97;;;34.35;35.75
41886;BME280;27567;43.084;25.616;2023-09-19T12:03:12;98254.00;;;35.76;34.88
41886;BME280;27567;43.084;25.616;2023-09-19T12:05:58;98252.88;;;35.81;33.95
41886;BME280;27567;43.084;25.616;2023-09-19T12:08:42;98248.84;;;35.32;34.56
41886;BME280;27567;43.084;25.616;2023-09-19T12:11:29;98247.28;;;36.89;32.85
41886;BME280;27567;43.084;25.616;2023-09-19T12:14:26;98249.31;;;35.57;35.06
41886;BME280;27567;43.084;25.616;2023-09-19T12:17:11;98246.72;;;34.66;35.54
41886;BME280;27567;43.084;25.616;2023-09-19T12:19:57;98243.53;;;37.08;32.96
41886;BME280;27567;43.084;25.616;2023-09-19T12:22:41;98233.88;;;37.84;32.01
41886;BME280;27567;43.084;25.616;2023-09-19T12:25:43;98235.78;;;36.63;32.69
41886;BME280;27567;43.084;25.616;2023-09-19T12:28:31;98225.66;;;37.16;32.73
41886;BME280;27567;43.084;25.616;2023-09-19T12:31:18;98231.16;;;38.51;31.04
41886;BME280;27567;43.084;25.616;2023-09-19T12:34:03;98222.59;;;39.18;30.19
41886;BME280;27567;43.084;25.616;2023-09-19T12:36:48;98229.09;;;39.94;29.66
41886;BME280;27567;43.084;25.616;2023-09-19T12:39:32;98228.81;;;41.59;27.16
41886;BME280;27567;43.084;25.616;2023-09-19T12:42:19;98242.44;;;40.94;28.04
41886;BME280;27567;43.084;25.616;2023-09-19T12:45:07;98232.97;;;39.06;29.31
41886;BME280;27567;43.084;25.616;2023-09-19T12:48:24;98229.88;;;39.95;28.09
41886;BME280;27567;43.084;25.616;2023-09-19T12:51:15;98227.00;;;40.42;28.00
41886;BME280;27567;43.084;25.616;2023-09-19T12:54:02;98221.41;;;38.30;30.01
41886;BME280;27567;43.084;25.616;2023-09-19T12:56:46;98227.31;;;42.35;26.64
41886;BME280;27567;43.084;25.616;2023-09-19T12:59:32;98222.69;;;43.45;25.50
41886;BME280;27567;43.084;25.616;2023-09-19T13:02:17;98213.63;;;43.34;24.62
41886;BME280;27567;43.084;25.616;2023-09-19T13:05:04;98218.75;;;43.12;24.69
41886;BME280;27567;43.084;25.616;2023-09-19T13:07:50;98221.31;;;40.67;26.51
41886;BME280;27567;43.084;25.616;2023-09-19T13:16:33;98212.91;;;42.29;24.49
41886;BME280;27567;43.084;25.616;2023-09-19T13:19:52;98217.47;;;42.89;24.01
41886;BME280;27567;43.084;25.616;2023-09-19T13:22:45;98215.28;;;45.03;22.71
41886;BME280;27567;43.084;25.616;2023-09-19T13:25:33;98206.72;;;43.07;22.97
41886;BME280;27567;43.084;25.616;2023-09-19T13:28:17;98209.53;;;42.80;23.67
41886;BME280;27567;43.084;25.616;2023-09-19T13:31:01;98212.00;;;41.49;24.14
41886;BME280;27567;43.084;25.616;2023-09-19T13:33:47;98205.81;;;40.05;24.65
41886;BME280;27567;43.084;25.616;2023-09-19T13:36:31;98199.34;;;39.06;25.22
41886;BME280;27567;43.084;25.616;2023-09-19T13:39:16;98200.16;;;39.25;25.35
41886;BME280;27567;43.084;25.616;2023-09-19T13:42:00;98194.75;;;38.55;25.96
41886;BME280;27567;43.084;25.616;2023-09-19T13:44:44;98195.34;;;38.12;26.45
41886;BME280;27567;43.084;25.616;2023-09-19T13:47:28;98202.72;;;38.45;25.47
41886;BME280;27567;43.084;25.616;2023-09-19T13:50:12;98203.59;;;35.89;27.81
41886;BME280;27567;43.084;25.616;2023-09-19T13:52:56;98208.81;;;33.10;31.00
41886;BME280;27567;43.084;25.616;2023-09-19T13:55:41;98213.72;;;31.36;33.46
41886;BME280;27567;43.084;25.616;2023-09-19T13:58:25;98204.22;;;30.06;34.26
41886;BME280;27567;43.084;25.616;2023-09-19T14:01:11;98192.91;;;28.94;35.61
41886;BME280;27567;43.084;25.616;2023-09-19T14:03:57;98200.88;;;28.34;37.62
41886;BME280;27567;43.084;25.616;2023-09-19T14:06:42;98202.47;;;27.69;38.53
41886;BME280;27567;43.084;25.616;2023-09-19T14:09:27;98193.69;;;27.26;39.27
41886;BME280;27567;43.084;25.616;2023-09-19T14:12:11;98194.34;;;27.32;40.29
41886;BME280;27567;43.084;25.616;2023-09-19T14:14:55;98184.72;;;27.21;41.71
41886;BME280;27567;43.084;25.616;2023-09-19T14:17:40;98194.47;;;27.27;43.17
41886;BME280;27567;43.084;25.616;2023-09-19T14:20:28;98204.44;;;27.14;42.63
41886;BME280;27567;43.084;25.616;2023-09-19T14:23:14;98203.72;;;26.99;43.46
41886;BME280;27567;43.084;25.616;2023-09-19T14:26:01;98196.09;;;26.96;44.42
41886;BME280;27567;43.084;25.616;2023-09-19T14:28:45;98202.72;;;26.95;43.59
41886;BME280;27567;43.084;25.616;2023-09-19T14:31:29;98202.19;;;27.16;43.75
41886;BME280;27567;43.084;25.616;2023-09-19T14:34:13;98195.56;;;27.17;44.79
41886;BME280;27567;43.084;25.616;2023-09-19T14:36:58;98203.81;;;27.17;44.23
41886;BME280;27567;43.084;25.616;2023-09-19T14:39:43;98200.00;;;27.04;45.35
41886;BME280;27567;43.084;25.616;2023-09-19T14:42:28;98201.69;;;27.14;46.08
41886;BME280;27567;43.084;25.616;2023-09-19T14:45:12;98197.09;;;27.32;45.94
41886;BME280;27567;43.084;25.616;2023-09-19T14:47:58;98199.22;;;27.35;46.11
41886;BME280;27567;43.084;25.616;2023-09-19T14:50:42;98203.41;;;27.55;44.80
41886;BME280;27567;43.084;25.616;2023-09-19T14:53:31;98200.38;;;27.43;45.01
41886;BME280;27567;43.084;25.616;2023-09-19T14:56:20;98205.06;;;27.65;45.26
41886;BME280;27567;43.084;25.616;2023-09-19T14:59:05;98197.94;;;27.64;45.41